Página principal
METAR-TAF:

METAR-TAF

Aeroportos :

Madrid-Torrejón, Espanha

latitude: 40-29N, longitude: 003-27W, altura: 607 m

Observação actual do tempo

O boletim foi feito há 29 minutos, às 15:00 UTC
Vento 5 kt de es-nordeste, variando entre nor-nordeste e este
Temperatura 18°C
Humidade 59%
Pressão 1017 hPa
Visibilidade 10 km ou mais
Poucas nuvensa uma altura de 4500 ft

METAR: LETO 151500Z 06005KT 030V100 9999 FEW045 18/10 Q1017 NOSIG

Hora: 16:29 (15:29 UTC)

Previsão

O boletim foi feito há 4 horas e 29 minutos, às 11:00 UTC
Previsão válida de 15 às 12 UTC a 16 às 12 UTC
Vento 7 kt de nordeste
Visibilidade 10 km ou mais
Nuvens dispersasa uma altura de 3000 ft
Nuvens fragmentadasa uma altura de 5000 ft
Probabilidade 30% :
Temporariamente
de 15 às 15 UTC a 15 às 18 UTC
Nuvens dispersasa uma altura de 3000 ft, Cumulus congestus.
aguaceiros de chuva

TAF: LETO 151100Z 1512/1612 04007KT 9999 SCT030 BKN050 TX17/1514Z TN08/1607Z PROB30 TEMPO 1515/1518 SHRA SCT030TCU

Observações e previsões do tempo de mais de 4000 aeroportos (mensagens METAR e TAF).

As estações disponíveis são os pontos amarelos e vermelhos sobre o mapa.

Mova o rato sobre o mapa para ver o nome da estação.

Depois clique no ponto para visualizar as observações e previsões meteorológicas.

Para alterar o mapa : clique nos botões verdes com uma cruz preta para aumentar o zoom; no botão verde com uma pitada de zoom; ou nas setas verdes para mapas adjacentes.


METAR-TAF: